Time;durP1;ratioP1;P1;durP2;ratioP2;P2;SDS_P1;SDS_P2;PMS_P1;PMS_P2;Temp;Humidity;BMP_temperature;BMP_pressure;BME280_temperature;BME280_humidity;BME280_pressure;Samples;Min_cycle;Max_cycle;Signal;HPM_P1;HPM_P2
2021/04/18 00:00:16;;;;;;;1.23;0.10;;;10.00;52.50;;;;;;4992774;28;20033;-78
2021/04/18 00:02:42;;;;;;;0.40;0.30;;;10.00;52.40;;;;;;4992695;28;20476;-78
2021/04/18 00:05:10;;;;;;;0.32;0.10;;;10.00;52.40;;;;;;4993825;28;20291;-79
2021/04/18 00:07:36;;;;;;;1.90;0.73;;;9.90;52.40;;;;;;4975506;28;20475;-79
2021/04/18 00:10:05;;;;;;;2.15;0.77;;;9.90;52.40;;;;;;4972869;28;20050;-79
2021/04/18 00:12:31;;;;;;;0.22;0.00;;;9.90;52.40;;;;;;4987426;28;20490;-78
2021/04/18 00:14:57;;;;;;;2.25;0.52;;;9.90;52.40;;;;;;4991757;28;20030;-78
2021/04/18 00:17:23;;;;;;;0.47;0.17;;;9.90;52.40;;;;;;4992468;28;20399;-79
2021/04/18 00:19:49;;;;;;;0.73;0.13;;;9.90;52.40;;;;;;4991664;28;20027;-79
2021/04/18 00:22:15;;;;;;;0.22;0.10;;;9.90;52.40;;;;;;4993185;28;20407;-79
2021/04/18 00:24:41;;;;;;;0.25;0.10;;;9.80;52.40;;;;;;4992859;28;20045;-79
2021/04/18 00:27:08;;;;;;;0.43;0.30;;;9.80;52.40;;;;;;4993398;28;20026;-79
2021/04/18 00:29:34;;;;;;;1.23;0.38;;;9.90;52.40;;;;;;4990944;28;20384;-79
2021/04/18 00:32:00;;;;;;;0.73;0.03;;;9.80;52.30;;;;;;4990632;28;20038;-79
2021/04/18 00:34:26;;;;;;;2.97;0.47;;;9.80;52.40;;;;;;4976389;28;20482;-78
2021/04/18 00:36:53;;;;;;;0.55;0.20;;;9.80;52.40;;;;;;4991542;28;20026;-79
2021/04/18 00:39:20;;;;;;;0.20;0.05;;;9.80;52.50;;;;;;4993032;28;20030;-79
2021/04/18 00:41:46;;;;;;;0.73;0.30;;;9.80;52.50;;;;;;4991530;28;20399;-78
2021/04/18 00:44:12;;;;;;;0.95;0.60;;;9.80;52.40;;;;;;4993058;28;20498;-79
2021/04/18 00:46:41;;;;;;;8.27;0.52;;;9.80;52.40;;;;;;4990509;28;20046;-79
2021/04/18 00:49:08;;;;;;;0.93;0.40;;;9.80;52.50;;;;;;4992180;28;20050;-79
2021/04/18 00:51:34;;;;;;;3.13;0.30;;;9.80;52.50;;;;;;4972629;28;20030;-78
2021/04/18 00:54:01;;;;;;;0.43;0.03;;;9.80;52.40;;;;;;4980755;28;20042;-79
2021/04/18 00:56:27;;;;;;;0.63;0.25;;;9.80;52.50;;;;;;4993578;28;20034;-78
2021/04/18 00:58:53;;;;;;;0.10;0.00;;;9.70;52.50;;;;;;4990406;28;20033;-78
2021/04/18 01:01:20;;;;;;;0.22;0.10;;;9.60;52.50;;;;;;4975342;28;20054;-78
2021/04/18 01:03:46;;;;;;;1.55;0.30;;;9.60;52.60;;;;;;4992038;28;20373;-78
2021/04/18 01:06:12;;;;;;;0.05;0.00;;;9.60;52.70;;;;;;4991241;28;20027;-78
2021/04/18 01:08:38;;;;;;;1.08;0.40;;;9.50;52.70;;;;;;4991995;28;20033;-78
2021/04/18 01:11:04;;;;;;;0.40;0.10;;;9.50;52.70;;;;;;4991381;28;20034;-79
2021/04/18 01:13:30;;;;;;;0.98;0.55;;;9.40;52.80;;;;;;4974483;28;20053;-79
2021/04/18 01:15:56;;;;;;;0.80;0.22;;;9.40;52.80;;;;;;4991668;28;20031;-79
2021/04/18 01:18:22;;;;;;;0.38;0.22;;;9.40;52.80;;;;;;4992687;28;20038;-79
2021/04/18 01:21:07;;;;;;;0.13;0.00;;;9.40;52.80;;;;;;4992555;28;20037;-79
2021/04/18 01:23:33;;;;;;;0.50;0.20;;;9.30;52.80;;;;;;4965965;28;20051;-79
2021/04/18 01:25:59;;;;;;;4.22;0.40;;;9.30;52.80;;;;;;4991215;28;20033;-79
2021/04/18 01:28:25;;;;;;;0.47;0.30;;;9.30;52.70;;;;;;4979103;28;20038;-79
2021/04/18 01:30:51;;;;;;;0.40;0.30;;;9.30;52.80;;;;;;4996072;28;20023;-79
2021/04/18 01:33:18;;;;;;;0.55;0.20;;;9.30;52.80;;;;;;4994299;28;20038;-78
2021/04/18 01:35:46;;;;;;;0.45;0.30;;;9.30;52.80;;;;;;4995437;28;20018;-78
2021/04/18 01:38:13;;;;;;;2.78;0.38;;;9.30;52.80;;;;;;4996363;28;20380;-78
2021/04/18 01:40:39;;;;;;;0.80;0.30;;;9.30;52.80;;;;;;4995383;28;20030;-79
2021/04/18 01:43:05;;;;;;;0.17;0.15;;;9.30;52.80;;;;;;4996321;28;20053;-78
2021/04/18 01:45:31;;;;;;;0.43;0.10;;;9.30;52.80;;;;;;4994088;28;20042;-79
2021/04/18 01:47:57;;;;;;;0.35;0.15;;;9.30;52.80;;;;;;4978640;28;20057;-78
2021/04/18 01:50:24;;;;;;;1.92;0.20;;;9.20;52.80;;;;;;4995342;28;20033;-79
2021/04/18 01:52:50;;;;;;;1.27;0.50;;;9.20;52.90;;;;;;4993978;28;20042;-79
2021/04/18 01:55:16;;;;;;;0.75;0.47;;;9.10;52.90;;;;;;4995315;28;20142;-78
2021/04/18 01:57:43;;;;;;;0.60;0.47;;;9.10;53.00;;;;;;4994761;28;20307;-79
2021/04/18 02:00:09;;;;;;;5.53;0.55;;;9.10;53.00;;;;;;4993834;28;20038;-79
2021/04/18 02:02:35;;;;;;;0.57;0.20;;;9.10;53.10;;;;;;4988046;28;20054;-79
2021/04/18 02:05:02;;;;;;;0.40;0.38;;;9.10;53.10;;;;;;4986245;28;20923;-78
2021/04/18 02:07:28;;;;;;;0.60;0.32;;;9.00;53.10;;;;;;4989104;28;20034;-79
2021/04/18 02:09:54;;;;;;;1.73;0.50;;;9.10;53.10;;;;;;4986113;28;20031;-80
2021/04/18 02:12:20;;;;;;;0.32;0.28;;;9.00;53.10;;;;;;4975138;28;20057;-78
2021/04/18 02:14:46;;;;;;;0.68;0.22;;;9.00;53.20;;;;;;4990089;28;20483;-79
2021/04/18 02:17:12;;;;;;;1.10;0.20;;;9.00;53.20;;;;;;4990215;28;20047;-79
2021/04/18 02:19:39;;;;;;;0.60;0.10;;;9.00;53.10;;;;;;4991278;28;20053;-79
2021/04/18 02:22:05;;;;;;;2.15;0.43;;;9.00;53.10;;;;;;4971684;28;20043;-78
2021/04/18 02:24:31;;;;;;;1.10;0.30;;;9.00;53.20;;;;;;4972344;28;20042;-79
2021/04/18 02:26:57;;;;;;;0.20;0.13;;;9.00;53.20;;;;;;4991126;28;20042;-79
2021/04/18 02:29:23;;;;;;;1.33;0.35;;;9.00;53.20;;;;;;4990995;28;20057;-79
2021/04/18 02:31:49;;;;;;;0.73;0.30;;;8.90;53.10;;;;;;4978137;28;20042;-78
2021/04/18 02:34:15;;;;;;;0.68;0.22;;;8.90;53.20;;;;;;4988635;28;20035;-79
2021/04/18 02:36:41;;;;;;;2.00;0.60;;;8.90;53.20;;;;;;4986067;28;20034;-79
2021/04/18 02:39:08;;;;;;;0.50;0.28;;;8.90;53.20;;;;;;4984512;28;20399;-78
2021/04/18 02:41:34;;;;;;;4.32;0.47;;;8.90;53.20;;;;;;4994339;28;20030;-78
2021/04/18 02:44:00;;;;;;;0.13;0.10;;;8.90;53.20;;;;;;4992754;28;20026;-78
2021/04/18 02:46:26;;;;;;;0.40;0.10;;;8.90;53.20;;;;;;4994637;28;20400;-79
2021/04/18 02:48:53;;;;;;;0.13;0.13;;;8.90;53.20;;;;;;4995187;28;20035;-79
2021/04/18 02:51:19;;;;;;;0.20;0.10;;;8.90;53.20;;;;;;4993735;28;20018;-78
2021/04/18 02:53:45;;;;;;;1.17;0.28;;;8.80;53.20;;;;;;4994067;28;20034;-78
2021/04/18 02:56:11;;;;;;;5.68;0.47;;;8.80;53.30;;;;;;4994240;28;20038;-78
2021/04/18 02:58:37;;;;;;;1.67;0.25;;;8.80;53.30;;;;;;4992516;28;20022;-78
2021/04/18 03:01:03;;;;;;;0.28;0.08;;;8.80;53.30;;;;;;4994149;28;20475;-78
2021/04/18 03:03:29;;;;;;;3.92;0.45;;;8.70;53.30;;;;;;4994615;28;20038;-78
2021/04/18 03:05:55;;;;;;;1.50;0.65;;;8.60;53.40;;;;;;4995176;28;20033;-78
2021/04/18 03:08:21;;;;;;;2.97;0.32;;;8.60;53.40;;;;;;4994013;28;20038;-78
2021/04/18 03:10:47;;;;;;;1.05;0.20;;;8.60;53.50;;;;;;4992807;28;20038;-79
2021/04/18 03:13:13;;;;;;;0.43;0.28;;;8.60;53.50;;;;;;4994071;28;20035;-79
2021/04/18 03:15:39;;;;;;;2.30;0.22;;;8.60;53.50;;;;;;4992304;28;20404;-79
2021/04/18 03:18:06;;;;;;;1.25;0.63;;;8.60;53.50;;;;;;4993571;28;20038;-79
2021/04/18 03:20:32;;;;;;;0.32;0.28;;;8.60;53.50;;;;;;4994970;28;20045;-78
2021/04/18 03:22:58;;;;;;;0.82;0.50;;;8.50;53.50;;;;;;4976502;28;20480;-79
2021/04/18 03:25:24;;;;;;;0.40;0.10;;;8.50;53.50;;;;;;4994998;28;20039;-79
2021/04/18 03:27:51;;;;;;;3.65;0.52;;;8.50;53.50;;;;;;4994128;28;20038;-78
2021/04/18 03:30:17;;;;;;;0.85;0.40;;;8.50;53.60;;;;;;4991812;28;20039;-79
2021/04/18 03:32:43;;;;;;;0.08;0.00;;;8.40;53.70;;;;;;4995961;28;20031;-79
2021/04/18 03:35:10;;;;;;;0.93;0.15;;;8.40;53.70;;;;;;4992957;28;20495;-79
2021/04/18 03:37:36;;;;;;;0.32;0.13;;;8.40;53.70;;;;;;4993387;28;20045;-79
2021/04/18 03:40:03;;;;;;;0.32;0.28;;;8.40;53.70;;;;;;4993014;28;20045;-79
2021/04/18 03:42:29;;;;;;;1.20;0.52;;;8.40;53.70;;;;;;4994304;28;20406;-79
2021/04/18 03:44:55;;;;;;;0.95;0.30;;;8.30;53.70;;;;;;4993618;28;20026;-78
2021/04/18 03:47:22;;;;;;;1.30;0.50;;;8.30;53.70;;;;;;4992266;28;20054;-79
2021/04/18 03:49:48;;;;;;;0.93;0.25;;;8.30;53.70;;;;;;4987694;28;20046;-79
2021/04/18 03:52:14;;;;;;;3.92;0.38;;;8.30;53.80;;;;;;4993686;28;20035;-78
2021/04/18 03:54:40;;;;;;;6.70;0.40;;;8.20;53.70;;;;;;4993041;28;20081;-78
2021/04/18 03:57:06;;;;;;;0.75;0.35;;;8.30;53.90;;;;;;4994383;28;20030;-78
2021/04/18 03:59:32;;;;;;;0.77;0.40;;;8.20;53.80;;;;;;4992974;28;20038;-79
2021/04/18 04:01:58;;;;;;;1.05;0.17;;;8.20;53.80;;;;;;4991039;28;20506;-79
2021/04/18 04:04:24;;;;;;;0.40;0.20;;;8.20;53.80;;;;;;4976964;28;20037;-79
2021/04/18 04:06:52;;;;;;;1.73;0.70;;;8.20;53.80;;;;;;4992087;28;20030;-79
2021/04/18 04:09:18;;;;;;;0.28;0.10;;;8.10;53.90;;;;;;4991503;28;20037;-79
2021/04/18 04:11:44;;;;;;;0.32;0.20;;;8.10;53.90;;;;;;4993567;28;20026;-78
2021/04/18 04:14:10;;;;;;;0.90;0.38;;;8.10;53.90;;;;;;4993034;28;20030;-78
2021/04/18 04:16:36;;;;;;;0.40;0.13;;;8.00;53.90;;;;;;4991153;28;20034;-77
2021/04/18 04:19:02;;;;;;;0.60;0.25;;;8.00;54.00;;;;;;4992172;28;20045;-78
2021/04/18 04:21:28;;;;;;;2.38;0.90;;;8.00;54.00;;;;;;4990915;28;20026;-77
2021/04/18 04:23:54;;;;;;;0.20;0.10;;;8.00;54.10;;;;;;4991595;28;20499;-77
2021/04/18 04:26:20;;;;;;;0.20;0.05;;;7.90;54.00;;;;;;4993630;28;20034;-77
2021/04/18 04:28:46;;;;;;;0.30;0.22;;;7.90;54.00;;;;;;4991138;28;20034;-77
2021/04/18 04:31:12;;;;;;;1.20;0.43;;;7.90;54.00;;;;;;4993041;28;20042;-77
2021/04/18 04:33:38;;;;;;;2.80;0.47;;;7.90;54.00;;;;;;4993431;28;20061;-77
2021/04/18 04:36:05;;;;;;;0.10;0.00;;;7.90;54.00;;;;;;4992083;28;20026;-77
2021/04/18 04:38:31;;;;;;;0.77;0.55;;;7.90;54.10;;;;;;4992959;28;20038;-77
2021/04/18 04:40:58;;;;;;;1.90;0.25;;;7.90;54.10;;;;;;4991173;28;20026;-77
2021/04/18 04:43:24;;;;;;;0.65;0.25;;;7.90;54.10;;;;;;4992646;28;20038;-77
2021/04/18 04:45:50;;;;;;;0.65;0.30;;;7.90;54.20;;;;;;4992626;28;20369;-78
2021/04/18 04:48:16;;;;;;;0.38;0.30;;;7.80;54.10;;;;;;4991948;28;20742;-77
2021/04/18 04:50:43;;;;;;;1.30;0.40;;;7.80;54.20;;;;;;4992204;28;20041;-77
2021/04/18 04:53:09;;;;;;;0.50;0.10;;;7.80;54.20;;;;;;4993349;28;20050;-77
2021/04/18 04:55:35;;;;;;;1.02;0.32;;;7.80;54.20;;;;;;4959233;28;20042;-78
2021/04/18 04:58:01;;;;;;;0.45;0.20;;;7.70;54.20;;;;;;4972208;28;20385;-78
2021/04/18 05:00:27;;;;;;;0.55;0.30;;;7.70;54.30;;;;;;4988110;28;20034;-77
2021/04/18 05:02:53;;;;;;;0.20;0.10;;;7.70;54.30;;;;;;4994626;28;20038;-77
2021/04/18 05:05:19;;;;;;;0.30;0.22;;;7.70;54.30;;;;;;4979172;28;20037;-77
2021/04/18 05:07:45;;;;;;;1.05;0.30;;;7.70;54.30;;;;;;4987889;28;20034;-77
2021/04/18 05:10:12;;;;;;;0.80;0.30;;;7.70;54.30;;;;;;4995044;28;20038;-77
2021/04/18 05:12:38;;;;;;;0.82;0.10;;;7.60;54.30;;;;;;4995768;28;20045;-77
2021/04/18 05:15:05;;;;;;;0.68;0.52;;;7.60;54.40;;;;;;4995079;28;20041;-78
2021/04/18 05:17:31;;;;;;;1.05;0.30;;;7.60;54.40;;;;;;4996830;28;20037;-77
2021/04/18 05:19:57;;;;;;;0.75;0.47;;;7.60;54.40;;;;;;4996138;28;20037;-77
2021/04/18 05:22:23;;;;;;;1.35;0.32;;;7.60;54.40;;;;;;4996722;28;20039;-77
2021/04/18 05:24:49;;;;;;;0.32;0.13;;;7.50;54.40;;;;;;4995468;28;20034;-77
2021/04/18 05:27:15;;;;;;;2.00;0.75;;;7.50;54.40;;;;;;4996072;28;20064;-78
2021/04/18 05:29:41;;;;;;;0.70;0.28;;;7.50;54.40;;;;;;4996949;28;20037;-77
2021/04/18 05:32:07;;;;;;;1.02;0.25;;;7.50;54.40;;;;;;4996421;28;20041;-77
2021/04/18 05:34:33;;;;;;;0.57;0.28;;;7.50;54.40;;;;;;4995116;28;20050;-78
2021/04/18 05:37:02;;;;;;;0.45;0.20;;;7.50;54.40;;;;;;4996097;28;20042;-78
2021/04/18 05:39:28;;;;;;;1.65;0.32;;;7.50;54.40;;;;;;4995768;28;20026;-77
2021/04/18 05:41:54;;;;;;;0.93;0.70;;;7.50;54.40;;;;;;4996434;28;20034;-77
2021/04/18 05:44:20;;;;;;;0.73;0.40;;;7.60;54.50;;;;;;4995040;28;20046;-78
2021/04/18 05:46:46;;;;;;;2.03;0.35;;;7.60;54.40;;;;;;4977771;28;20050;-77
2021/04/18 05:49:13;;;;;;;1.85;0.30;;;7.70;54.40;;;;;;4996521;28;20038;-77
2021/04/18 05:51:39;;;;;;;0.43;0.28;;;7.90;54.10;;;;;;4994831;28;20480;-78
2021/04/18 05:54:06;;;;;;;0.88;0.30;;;8.10;53.90;;;;;;4995195;28;20391;-77
2021/04/18 05:56:32;;;;;;;3.92;0.38;;;8.30;53.60;;;;;;4994632;28;20045;-77
2021/04/18 05:58:58;;;;;;;0.28;0.10;;;8.40;53.40;;;;;;4993509;28;20050;-78
2021/04/18 06:01:24;;;;;;;0.10;0.05;;;8.60;53.40;;;;;;4993334;28;20047;-78
2021/04/18 06:03:51;;;;;;;1.02;0.30;;;8.70;53.10;;;;;;4994821;28;20046;-78
2021/04/18 06:06:17;;;;;;;1.77;0.30;;;8.80;53.00;;;;;;4995091;28;20037;-78
2021/04/18 06:08:43;;;;;;;0.88;0.17;;;8.90;52.90;;;;;;4994810;28;20506;-78
2021/04/18 06:11:09;;;;;;;1.55;0.57;;;9.00;52.70;;;;;;4995751;28;20042;-77
2021/04/18 06:13:35;;;;;;;0.20;0.00;;;9.10;52.70;;;;;;4973077;28;20039;-78
2021/04/18 06:16:01;;;;;;;0.85;0.57;;;9.30;52.70;;;;;;4992752;28;20034;-78
2021/04/18 06:18:27;;;;;;;1.25;0.20;;;9.40;52.50;;;;;;4975439;28;20046;-78
2021/04/18 06:20:54;;;;;;;0.40;0.20;;;9.50;52.40;;;;;;4967642;28;20042;-78
2021/04/18 06:23:22;;;;;;;0.55;0.20;;;9.50;52.40;;;;;;4994596;28;20039;-78
2021/04/18 06:25:48;;;;;;;3.70;0.40;;;9.50;52.50;;;;;;4992976;28;20034;-77
2021/04/18 06:28:14;;;;;;;3.97;0.43;;;9.50;52.60;;;;;;4995713;28;20034;-80
2021/04/18 06:30:40;;;;;;;0.57;0.32;;;9.50;52.60;;;;;;4974856;28;20049;-79
2021/04/18 06:33:07;;;;;;;0.22;0.13;;;9.50;52.60;;;;;;4985377;28;20041;-78
2021/04/18 06:35:33;;;;;;;1.33;0.45;;;9.50;52.70;;;;;;4995324;28;20060;-78
2021/04/18 06:37:59;;;;;;;0.20;0.17;;;9.50;52.70;;;;;;4976299;28;20041;-78
2021/04/18 06:40:25;;;;;;;0.63;0.35;;;9.50;52.80;;;;;;4978169;28;20049;-78
2021/04/18 06:42:55;;;;;;;0.00;0.00;;;9.60;52.80;;;;;;4991913;28;20038;-76
2021/04/18 06:45:21;;;;;;;0.10;0.00;;;9.60;52.80;;;;;;4993133;28;20045;-77
2021/04/18 06:47:47;;;;;;;0.30;0.15;;;9.60;52.80;;;;;;4989489;28;20069;-79
2021/04/18 06:50:14;;;;;;;0.85;0.15;;;9.50;53.00;;;;;;4990878;28;20026;-77
2021/04/18 06:52:40;;;;;;;1.20;0.50;;;9.50;53.10;;;;;;4992419;28;20057;-74
2021/04/18 06:55:07;;;;;;;3.08;1.52;;;9.60;52.90;;;;;;4990507;28;20041;-78
2021/04/18 06:57:34;;;;;;;0.38;0.20;;;9.80;52.80;;;;;;4984970;28;20034;-79
2021/04/18 07:00:00;;;;;;;0.85;0.32;;;9.90;52.60;;;;;;4989705;28;20041;-76
2021/04/18 07:02:27;;;;;;;2.20;0.70;;;10.10;52.40;;;;;;4990159;28;20472;-81
2021/04/18 07:05:04;;;;;;;0.20;0.10;;;10.20;52.40;;;;;;4993794;28;20038;-81
2021/04/18 07:07:32;;;;;;;0.30;0.30;;;10.30;52.20;;;;;;4990003;28;20026;-79
2021/04/18 07:09:58;;;;;;;1.10;0.43;;;10.40;52.20;;;;;;4989375;28;20038;-79
2021/04/18 07:12:29;;;;;;;0.75;0.20;;;10.40;52.30;;;;;;4973619;28;20039;-81
2021/04/18 07:14:56;;;;;;;0.30;0.17;;;10.30;52.30;;;;;;4989829;28;20034;-83
2021/04/18 07:17:23;;;;;;;0.73;0.17;;;10.50;52.40;;;;;;4989068;28;20507;-84
2021/04/18 07:19:50;;;;;;;0.35;0.20;;;10.70;52.10;;;;;;4993631;28;20034;-80
2021/04/18 07:22:17;;;;;;;0.70;0.45;;;10.90;51.80;;;;;;4990105;28;20042;-80
2021/04/18 07:24:57;;;;;;;0.55;0.20;;;11.10;51.60;;;;;;4988657;28;20042;-79
2021/04/18 07:27:23;;;;;;;1.38;0.25;;;11.20;51.40;;;;;;4988780;28;20033;-80
2021/04/18 07:29:57;;;;;;;0.77;0.10;;;11.30;51.30;;;;;;4973994;28;20042;-82
2021/04/18 07:32:25;;;;;;;0.95;0.00;;;11.40;51.20;;;;;;4982254;28;20042;-80
2021/04/18 07:34:52;;;;;;;0.75;0.17;;;11.50;51.20;;;;;;4993384;28;20026;-83
2021/04/18 07:37:23;;;;;;;1.40;0.30;;;11.70;51.00;;;;;;4991382;28;20494;-82
2021/04/18 07:39:53;;;;;;;0.35;0.10;;;11.80;50.80;;;;;;5005769;28;20022;-81
2021/04/18 07:42:31;;;;;;;0.32;0.10;;;11.90;50.80;;;;;;4990253;28;20034;-82
2021/04/18 07:44:58;;;;;;;0.88;0.20;;;12.00;50.70;;;;;;4991116;28;20057;-84
2021/04/18 07:47:25;;;;;;;0.25;0.08;;;12.00;50.60;;;;;;4974340;28;20042;-84
2021/04/18 07:49:52;;;;;;;3.05;0.68;;;12.10;50.60;;;;;;5008540;28;20042;-81
2021/04/18 07:52:18;;;;;;;2.55;0.73;;;12.10;50.50;;;;;;4974173;28;20376;-78
2021/04/18 07:54:44;;;;;;;2.95;0.75;;;12.20;50.60;;;;;;5022777;28;20479;-78
2021/04/18 07:57:10;;;;;;;0.50;0.10;;;12.40;50.50;;;;;;4974156;28;20030;-78
2021/04/18 07:59:37;;;;;;;0.77;0.20;;;12.50;50.20;;;;;;4991512;28;20049;-78
2021/04/18 08:02:04;;;;;;;0.80;0.45;;;12.50;50.10;;;;;;5020783;28;20403;-80
2021/04/18 08:04:31;;;;;;;0.93;0.38;;;12.50;50.10;;;;;;4989445;28;20475;-79
2021/04/18 08:07:00;;;;;;;1.00;0.47;;;12.50;50.30;;;;;;4988180;28;20042;-81
2021/04/18 08:09:26;;;;;;;0.47;0.10;;;12.50;50.20;;;;;;4990529;28;20399;-80
2021/04/18 08:12:19;;;;;;;1.42;0.52;;;12.70;50.20;;;;;;4972577;28;20145;-81
2021/04/18 08:15:09;;;;;;;1.05;0.38;;;12.80;50.00;;;;;;5006689;28;20046;-80
2021/04/18 08:17:35;;;;;;;0.98;0.30;;;12.90;49.90;;;;;;5002344;28;20038;-78
2021/04/18 08:20:03;;;;;;;1.13;0.47;;;13.00;49.80;;;;;;5006153;28;20041;-79
2021/04/18 08:23:02;;;;;;;0.95;0.55;;;13.00;49.60;;;;;;4988277;28;20042;-79
2021/04/18 08:25:28;;;;;;;0.95;0.35;;;12.90;49.70;;;;;;4989944;28;20042;-78
2021/04/18 08:28:12;;;;;;;1.45;0.47;;;13.00;49.80;;;;;;4989094;28;20034;-79
2021/04/18 08:31:07;;;;;;;1.00;0.30;;;13.00;50.30;;;;;;4988976;28;20046;-79
2021/04/18 08:33:40;;;;;;;1.15;0.50;;;13.10;49.60;;;;;;4989792;28;20492;-79
2021/04/18 08:36:23;;;;;;;1.05;0.30;;;13.40;50.00;;;;;;4987191;28;20042;-79
2021/04/18 08:39:04;;;;;;;1.02;0.63;;;13.60;49.10;;;;;;4988530;28;20018;-79
2021/04/18 08:41:59;;;;;;;1.30;0.70;;;13.80;48.70;;;;;;4985265;28;20060;-81
2021/04/18 08:44:35;;;;;;;1.70;0.60;;;14.00;48.60;;;;;;4991781;28;20487;-80
2021/04/18 08:47:05;;;;;;;0.77;0.55;;;14.20;48.50;;;;;;4990339;28;20077;-79
2021/04/18 08:49:42;;;;;;;13.43;0.75;;;14.40;48.30;;;;;;4974341;28;20036;-79
2021/04/18 08:52:09;;;;;;;2.13;0.52;;;14.60;48.10;;;;;;4991546;28;20034;-78
2021/04/18 08:54:37;;;;;;;1.05;0.40;;;14.70;47.90;;;;;;4975339;28;20027;-78
2021/04/18 08:57:06;;;;;;;2.03;0.63;;;14.80;47.90;;;;;;4990995;28;20049;-78
2021/04/18 08:59:33;;;;;;;2.25;0.52;;;14.90;47.80;;;;;;4991773;28;20049;-78
2021/04/18 09:02:07;;;;;;;0.93;0.40;;;15.00;47.70;;;;;;4991296;28;20061;-79
2021/04/18 09:04:34;;;;;;;2.38;0.63;;;15.20;47.70;;;;;;4989799;28;20039;-79
2021/04/18 09:07:01;;;;;;;2.05;0.30;;;15.30;47.60;;;;;;4973864;28;20053;-79
2021/04/18 09:09:27;;;;;;;1.30;0.43;;;15.50;47.40;;;;;;4988812;28;20030;-79
2021/04/18 09:11:54;;;;;;;0.80;0.30;;;15.70;47.00;;;;;;4989566;28;20050;-79
2021/04/18 09:14:29;;;;;;;0.40;0.17;;;15.80;46.90;;;;;;4990911;28;20505;-79
2021/04/18 09:17:14;;;;;;;1.35;0.50;;;15.80;46.80;;;;;;4987188;28;20058;-80
2021/04/18 09:19:42;;;;;;;0.82;0.38;;;15.90;47.00;;;;;;4989751;28;20038;-80
2021/04/18 09:22:10;;;;;;;1.15;0.45;;;16.20;46.70;;;;;;4975233;28;20495;-79
2021/04/18 09:24:43;;;;;;;0.73;0.32;;;16.50;46.30;;;;;;4991398;28;20053;-78
2021/04/18 09:27:12;;;;;;;1.95;0.80;;;16.70;46.10;;;;;;4992540;28;20022;-79
2021/04/18 09:29:52;;;;;;;0.73;0.20;;;16.80;46.00;;;;;;4991264;28;20059;-80
2021/04/18 09:32:28;;;;;;;5.20;0.38;;;16.90;45.90;;;;;;4990737;28;20487;-79
2021/04/18 09:34:54;;;;;;;0.73;0.32;;;16.90;45.60;;;;;;4987347;28;20022;-80
2021/04/18 09:37:32;;;;;;;2.05;0.40;;;16.80;45.70;;;;;;4990309;28;20023;-81
2021/04/18 09:40:09;;;;;;;1.45;0.75;;;16.80;45.80;;;;;;4988447;28;20027;-81
2021/04/18 09:42:37;;;;;;;1.55;0.60;;;16.90;45.50;;;;;;4989565;28;20027;-81
2021/04/18 09:45:12;;;;;;;0.20;0.05;;;17.00;45.30;;;;;;4990925;28;20558;-82
2021/04/18 09:47:39;;;;;;;1.25;0.38;;;17.00;45.00;;;;;;4992691;28;20066;-81
2021/04/18 09:50:15;;;;;;;4.07;0.30;;;16.90;44.80;;;;;;4994417;28;20033;-80
2021/04/18 09:52:42;;;;;;;0.82;0.35;;;16.80;44.70;;;;;;4992687;28;20023;-81
2021/04/18 09:55:14;;;;;;;7.35;0.85;;;16.80;44.70;;;;;;4994761;28;20024;-81
2021/04/18 09:57:45;;;;;;;2.30;0.30;;;17.00;44.40;;;;;;4991039;28;20391;-79
2021/04/18 10:00:17;;;;;;;2.03;0.20;;;17.00;44.20;;;;;;4995228;28;20034;-81
2021/04/18 10:03:07;;;;;;;3.63;0.57;;;17.10;44.20;;;;;;4994682;28;20037;-80
2021/04/18 10:05:38;;;;;;;1.17;0.20;;;17.20;44.10;;;;;;4988719;28;20034;-81
2021/04/18 10:08:19;;;;;;;;;;;17.40;43.80;;;;;;4994936;28;20479;-81
2021/04/18 10:11:11;;;;;;;1.08;0.40;;;17.60;43.40;;;;;;4992347;28;19910;-82
2021/04/18 10:13:49;;;;;;;0.57;0.25;;;17.50;43.60;;;;;;4989226;28;20533;-80
2021/04/18 10:16:16;;;;;;;0.82;0.40;;;17.50;43.20;;;;;;4993783;28;20402;-82
2021/04/18 10:19:02;;;;;;;0.55;0.17;;;17.70;43.10;;;;;;5000839;28;20030;-82
2021/04/18 10:21:28;;;;;;;0.98;0.45;;;18.10;42.70;;;;;;4993288;28;20038;-79
2021/04/18 10:23:54;;;;;;;0.47;0.28;;;18.20;42.40;;;;;;4990484;28;20488;-79
2021/04/18 10:26:21;;;;;;;1.35;0.52;;;18.20;42.30;;;;;;5007430;28;20050;-79
2021/04/18 10:28:48;;;;;;;1.70;0.25;;;18.20;42.30;;;;;;4975856;28;20030;-79
2021/04/18 10:31:14;;;;;;;1.42;0.57;;;18.30;42.30;;;;;;4992437;28;20488;-78
2021/04/18 10:33:41;;;;;;;0.80;0.40;;;18.50;42.30;;;;;;4958720;28;20043;-80
2021/04/18 10:36:07;;;;;;;0.68;0.20;;;18.70;42.20;;;;;;4978585;28;20487;-79
2021/04/18 10:38:33;;;;;;;1.17;0.20;;;18.90;41.90;;;;;;5022319;28;20034;-81
2021/04/18 10:40:59;;;;;;;2.60;0.32;;;19.00;41.40;;;;;;5023871;28;20041;-82
2021/04/18 10:43:25;;;;;;;3.45;0.40;;;18.90;41.40;;;;;;4972558;28;20051;-82
2021/04/18 10:45:52;;;;;;;1.50;0.47;;;18.80;41.30;;;;;;4971816;28;20427;-84
2021/04/18 10:48:18;;;;;;;0.35;0.10;;;18.70;41.30;;;;;;4990394;28;20037;-81
2021/04/18 10:50:45;;;;;;;6.90;0.30;;;18.60;41.20;;;;;;4991509;28;20034;-82
2021/04/18 10:53:11;;;;;;;1.42;0.20;;;18.50;41.30;;;;;;5005240;28;20049;-81
2021/04/18 10:55:37;;;;;;;3.15;0.30;;;18.60;41.20;;;;;;4994061;28;20033;-81
2021/04/18 10:58:03;;;;;;;1.35;0.43;;;18.60;41.10;;;;;;4975423;28;20053;-79
2021/04/18 11:00:29;;;;;;;0.85;0.30;;;18.70;41.10;;;;;;4993391;28;20049;-83
2021/04/18 11:02:56;;;;;;;2.65;0.47;;;18.90;41.10;;;;;;4977362;28;20058;-81
2021/04/18 11:05:22;;;;;;;1.48;0.40;;;19.10;40.70;;;;;;4992803;28;20042;-83
2021/04/18 11:07:48;;;;;;;1.35;0.60;;;19.30;40.30;;;;;;4993679;28;20041;-88
2021/04/18 11:10:15;;;;;;;8.57;0.40;;;19.30;40.10;;;;;;4973638;28;20039;-88
2021/04/18 11:12:42;;;;;;;1.65;0.35;;;19.20;39.90;;;;;;4988827;28;20029;-88
2021/04/18 11:15:11;;;;;;;3.10;0.50;;;19.10;40.00;;;;;;4993497;28;20815;-87
2021/04/18 11:17:38;;;;;;;1.10;0.40;;;19.10;40.00;;;;;;4986930;28;20077;-90
2021/04/18 11:20:12;;;;;;;0.28;0.15;;;19.10;39.90;;;;;;4958892;28;20042;-86
2021/04/18 11:22:38;;;;;;;3.35;0.30;;;19.20;39.80;;;;;;5007231;28;20495;-85
2021/04/18 11:25:06;;;;;;;0.52;0.10;;;19.20;39.30;;;;;;4991735;28;20045;-86
2021/04/18 11:27:32;;;;;;;0.52;0.10;;;19.10;39.30;;;;;;4994419;28;20467;-78
2021/04/18 11:29:59;;;;;;;1.50;0.45;;;19.10;39.50;;;;;;4992510;28;20042;-81
2021/04/18 11:32:25;;;;;;;0.10;0.10;;;19.00;39.30;;;;;;4992639;28;20037;-82
2021/04/18 11:34:51;;;;;;;2.33;0.52;;;18.90;39.20;;;;;;4976387;28;20038;-83
2021/04/18 11:37:17;;;;;;;0.55;0.30;;;19.00;39.20;;;;;;4977319;28;20035;-89
2021/04/18 11:39:43;;;;;;;3.92;0.43;;;18.90;38.90;;;;;;4991845;28;20034;-91
2021/04/18 11:42:09;;;;;;;0.50;0.20;;;18.90;38.90;;;;;;4992897;28;20025;-86
2021/04/18 11:44:36;;;;;;;1.23;0.50;;;19.00;39.00;;;;;;4994090;28;20038;-84
2021/04/18 11:47:02;;;;;;;0.82;0.38;;;18.90;38.90;;;;;;4991479;28;20063;-84
2021/04/18 11:49:28;;;;;;;0.95;0.15;;;19.10;38.90;;;;;;4992624;28;20041;-85
2021/04/18 11:51:54;;;;;;;1.17;0.40;;;19.10;38.80;;;;;;4993083;28;20031;-84
2021/04/18 11:54:20;;;;;;;0.00;0.00;;;19.10;38.70;;;;;;4992629;28;20042;-81
2021/04/18 11:56:46;;;;;;;0.38;0.10;;;19.10;38.70;;;;;;4992131;28;20049;-85
2021/04/18 11:59:12;;;;;;;1.15;0.32;;;19.10;38.40;;;;;;4977079;28;20045;-83
2021/04/18 12:01:38;;;;;;;0.47;0.28;;;19.00;38.20;;;;;;4991262;28;20053;-85
2021/04/18 12:04:04;;;;;;;0.70;0.20;;;19.00;38.20;;;;;;4992598;28;20041;-82
2021/04/18 12:06:31;;;;;;;5.20;0.40;;;19.00;38.10;;;;;;4992340;28;20041;-81
2021/04/18 12:08:57;;;;;;;0.50;0.30;;;18.90;37.70;;;;;;4993593;28;20026;-82
2021/04/18 12:11:23;;;;;;;0.20;0.05;;;18.80;37.70;;;;;;4992473;28;20030;-80
2021/04/18 12:13:49;;;;;;;1.85;0.30;;;18.80;37.60;;;;;;4975340;28;20022;-85
2021/04/18 12:16:16;;;;;;;0.13;0.00;;;18.70;37.50;;;;;;4972440;28;20038;-83
2021/04/18 12:18:42;;;;;;;0.77;0.32;;;18.80;37.50;;;;;;4989971;28;20037;-80
2021/04/18 12:21:09;;;;;;;1.33;0.17;;;18.80;37.30;;;;;;4992893;28;20053;-81
2021/04/18 12:23:35;;;;;;;1.10;0.30;;;18.90;37.20;;;;;;4991151;28;20379;-84
2021/04/18 12:26:02;;;;;;;4.30;0.30;;;19.10;37.10;;;;;;4974392;28;20050;-82
2021/04/18 12:28:28;;;;;;;0.00;0.00;;;19.40;36.90;;;;;;4991837;28;20380;-82
2021/04/18 12:30:54;;;;;;;0.75;0.38;;;19.70;36.70;;;;;;4991095;28;20038;-83
2021/04/18 12:33:20;;;;;;;2.42;0.38;;;19.80;36.40;;;;;;4991939;28;20027;-81
2021/04/18 12:35:46;;;;;;;1.73;0.43;;;19.70;36.20;;;;;;4991259;28;20038;-78
2021/04/18 12:38:12;;;;;;;0.40;0.20;;;19.70;36.40;;;;;;4991987;28;20045;-84
2021/04/18 12:40:38;;;;;;;0.70;0.30;;;19.70;36.40;;;;;;4991650;28;20034;-83
2021/04/18 12:43:04;;;;;;;0.38;0.00;;;19.70;36.30;;;;;;4974210;28;20050;-81
2021/04/18 12:45:30;;;;;;;1.35;0.57;;;19.60;36.30;;;;;;4991343;28;20042;-78
2021/04/18 12:47:57;;;;;;;0.65;0.45;;;19.40;36.20;;;;;;4991658;28;20053;-80
2021/04/18 12:50:23;;;;;;;1.27;0.10;;;19.40;36.20;;;;;;4992913;28;20372;-78
2021/04/18 12:52:49;;;;;;;2.03;0.63;;;19.40;36.20;;;;;;4990730;28;20041;-83
2021/04/18 12:55:15;;;;;;;0.43;0.25;;;19.40;35.90;;;;;;4992300;28;20494;-83